KSPF/SPF METAR and TAF weather

Enter ICAO airport designator
Station Type Date Time Source
KSPF METAR 2020/02/28 08:55 UTC NOAA

KSPF 280855Z AUTO 27015KT 10SM BKN070 OVC080 03/M07 A3008 RMK AO2


Station Type Date Time Source
KSPF Decoded METAR 2020/02/28 08:55 UTC NOAA

Spearfish / Clyde Ice, SD, United States (KSPF) 44-29N 103-47W
Feb 28, 2020 - 03:55 AM EST / 2020.02.28 0855 UTC
Wind: from the W (270 degrees) at 17 MPH (15 KT):0
Visibility: 10 mile(s):0
Sky conditions: overcast
Temperature: 37 F (3 C)
Dew Point: 19 F (-7 C)
Relative Humidity: 47%
Pressure (altimeter): 30.08 in. Hg (1018 hPa)
ob: KSPF 280855Z AUTO 27015KT 10SM BKN070 OVC080 03/M07 A3008 RMK AO2
cycle: 9

Station Type Date Time Source
KSPF TAF UTC NOAA

Error!

Example: see airport list